TimeEET,TemperatureF,Dew PointF,Humidity,Sea Level PressureIn,VisibilityMPH,Wind Direction,Wind SpeedMPH,Gust SpeedMPH,PrecipitationIn,Events,Conditions,WindDirDegrees,DateUTC
12:50 AM,33.8,33.8,100,30.04,4.3,West,4.6,-,N/A,,Mostly Cloudy,280,2013-01-22 22:50:00
1:50 AM,35.6,32.0,87,30.04,4.3,NNW,4.6,-,N/A,,Mostly Cloudy,330,2013-01-22 23:50:00
2:00 AM,35,32,86,,4,NNW,4.6,,,,Mist,330,2013-01-23 00:00:00
2:50 AM,35.6,32.0,87,30.04,4.3,North,2.3,-,N/A,,Mostly Cloudy,360,2013-01-23 00:50:00
3:50 AM,33.8,33.8,100,30.04,4.3,NE,1.2,-,N/A,,Mostly Cloudy,40,2013-01-23 01:50:00
4:50 AM,33.8,33.8,100,30.04,4.3,NE,1.2,-,N/A,,Mostly Cloudy,40,2013-01-23 02:50:00
5:50 AM,33.8,33.8,100,30.04,6.2,West,4.6,-,N/A,,Mostly Cloudy,270,2013-01-23 03:50:00
6:50 AM,33.8,32.0,93,30.04,6.2,Calm,Calm,-,N/A,,Mostly Cloudy,0,2013-01-23 04:50:00
7:50 AM,33.8,32.0,93,30.04,6.2,Variable,2.3,-,N/A,,Mostly Cloudy,0,2013-01-23 05:50:00
8:00 AM,34,33,94,,6,ESE,2.3,,,,Partly Cloudy,120,2013-01-23 06:00:00
8:50 AM,33.8,33.8,100,30.06,6.2,Variable,1.2,-,N/A,,Mostly Cloudy,0,2013-01-23 06:50:00
9:50 AM,37.4,33.8,87,30.06,6.2,Calm,Calm,-,N/A,,Mostly Cloudy,0,2013-01-23 07:50:00
10:50 AM,35.6,33.8,93,30.06,6.2,SE,4.6,-,N/A,,Mostly Cloudy,130,2013-01-23 08:50:00
11:50 AM,39.2,33.8,81,30.04,6.2,East,3.5,-,N/A,,Mostly Cloudy,80,2013-01-23 09:50:00
12:50 PM,42.8,33.8,70,30.01,6.2,Calm,Calm,-,N/A,,Mostly Cloudy,0,2013-01-23 10:50:00
1:50 PM,42.8,33.8,70,30.01,6.2,Calm,Calm,-,N/A,,Mostly Cloudy,0,2013-01-23 11:50:00
2:00 PM,42,35,67,,6,Calm,Calm,,,,Partly Cloudy,,2013-01-23 12:00:00
2:50 PM,39.2,33.8,81,30.01,6.2,Calm,Calm,-,N/A,,Mostly Cloudy,0,2013-01-23 12:50:00
3:50 PM,39.2,33.8,81,30.01,6.2,Calm,Calm,-,N/A,,Mostly Cloudy,0,2013-01-23 13:50:00
4:50 PM,37.4,33.8,87,30.04,6.2,Calm,Calm,-,N/A,,Mostly Cloudy,0,2013-01-23 14:50:00
5:50 PM,35.6,32.0,87,30.04,4.3,SE,2.3,-,N/A,,Mostly Cloudy,130,2013-01-23 15:50:00
6:50 PM,33.8,32.0,93,30.04,4.3,NW,3.5,-,N/A,,Mostly Cloudy,310,2013-01-23 16:50:00
7:50 PM,33.8,33.8,100,30.04,4.3,North,4.6,-,N/A,,Mostly Cloudy,350,2013-01-23 17:50:00
8:00 PM,35,33,91,,4,North,4.6,,,,Mist,350,2013-01-23 18:00:00
8:50 PM,35.6,32.0,87,30.04,3.7,Variable,3.5,-,N/A,,Mostly Cloudy,0,2013-01-23 18:50:00
9:50 PM,33.8,32.0,93,30.06,3.7,NE,6.9,-,N/A,,Mostly Cloudy,50,2013-01-23 19:50:00
10:50 PM,33.8,32.0,93,30.04,3.7,Variable,1.2,-,N/A,,Mostly Cloudy,0,2013-01-23 20:50:00
11:50 PM,33.8,32.0,93,30.04,3.7,Variable,1.2,-,N/A,,Mostly Cloudy,0,2013-01-23 21:50:00